createdAt,value
2022-07-25T00:03:56.711Z,6.72
2022-07-25T00:09:01.590Z,6.80
2022-07-25T00:14:08.710Z,6.82
2022-07-25T00:19:13.002Z,7.20
2022-07-25T00:24:17.450Z,7.78
2022-07-25T00:29:19.246Z,7.90
2022-07-25T00:34:21.329Z,8.05
2022-07-25T00:39:23.349Z,8.45
2022-07-25T00:44:26.627Z,8.63
2022-07-25T00:49:30.655Z,9.55
2022-07-25T00:54:32.762Z,9.55
2022-07-25T00:59:41.830Z,10.10
2022-07-25T01:04:43.599Z,9.95
2022-07-25T01:09:59.390Z,10.85
2022-07-25T01:15:06.062Z,10.38
2022-07-25T01:20:17.155Z,11.38
2022-07-25T01:25:20.769Z,11.30
2022-07-25T01:30:25.249Z,11.65
2022-07-25T01:35:29.323Z,11.35
2022-07-25T01:40:33.919Z,11.55
2022-07-25T01:45:35.685Z,11.40
2022-07-25T01:50:43.229Z,11.73
2022-07-25T01:55:46.169Z,11.95
2022-07-25T02:00:48.973Z,11.57
2022-07-25T02:05:52.959Z,10.68
2022-07-25T02:10:55.906Z,10.88
2022-07-25T02:15:57.654Z,11.07
2022-07-25T02:21:07.219Z,11.10
2022-07-25T02:26:19.471Z,12.07
2022-07-25T02:31:21.270Z,11.30
2022-07-25T02:36:25.378Z,10.93
2022-07-25T02:41:29.699Z,11.52
2022-07-25T02:46:33.896Z,10.57
2022-07-25T02:51:38.028Z,10.30
2022-07-25T02:56:42.024Z,10.60
2022-07-25T03:01:43.820Z,10.45
2022-07-25T03:06:48.643Z,10.23
2022-07-25T03:11:52.118Z,10.10
2022-07-25T03:16:53.998Z,9.95
2022-07-25T03:22:02.372Z,9.77
2022-07-25T03:27:05.109Z,9.07
2022-07-25T03:32:07.687Z,10.00
2022-07-25T03:37:09.568Z,9.80
2022-07-25T03:42:11.851Z,9.10
2022-07-25T03:47:20.521Z,9.15
2022-07-25T03:52:25.679Z,8.63
2022-07-25T03:57:29.405Z,9.07
2022-07-25T04:02:33.703Z,8.25
2022-07-25T04:07:38.484Z,7.93
2022-07-25T04:12:40.193Z,8.40
2022-07-25T04:17:46.571Z,8.20
2022-07-25T04:22:48.348Z,7.93
2022-07-25T04:27:50.104Z,8.30
2022-07-25T04:32:52.418Z,7.45
2022-07-25T04:37:54.133Z,8.27
2022-07-25T04:42:55.909Z,7.95
2022-07-25T04:47:57.878Z,8.18
2022-07-25T04:53:04.426Z,9.07
2022-07-25T04:58:09.148Z,8.90
2022-07-25T05:03:11.081Z,8.63
2022-07-25T05:08:15.777Z,8.95
2022-07-25T05:13:22.435Z,9.60
2022-07-25T05:18:27.907Z,9.63
2022-07-25T05:23:32.050Z,9.02
2022-07-25T05:28:38.216Z,9.40
2022-07-25T05:33:40.056Z,9.38
2022-07-25T05:38:41.770Z,8.52
2022-07-25T05:43:49.571Z,9.45
2022-07-25T05:48:51.374Z,10.23
2022-07-25T05:53:56.135Z,9.70
2022-07-25T05:59:02.472Z,9.60
2022-07-25T06:04:05.320Z,10.20
2022-07-25T06:09:07.965Z,9.82
2022-07-25T06:14:10.725Z,9.65
2022-07-25T06:19:14.904Z,8.30
2022-07-25T06:24:18.842Z,7.47
2022-07-25T06:29:26.586Z,8.57
2022-07-25T06:34:28.992Z,8.70
2022-07-25T06:39:33.938Z,9.35
2022-07-25T06:44:35.713Z,8.68
2022-07-25T06:49:37.456Z,8.35
2022-07-25T06:54:41.797Z,9.02
2022-07-25T06:59:47.711Z,9.18
2022-07-25T07:04:53.404Z,8.55
2022-07-25T07:09:57.741Z,8.77
2022-07-25T07:14:59.973Z,8.70
2022-07-25T07:20:05.693Z,8.43
2022-07-25T07:25:10.240Z,7.93
2022-07-25T07:30:16.118Z,9.20
2022-07-25T07:35:20.933Z,8.80
2022-07-25T07:40:23.266Z,8.68
2022-07-25T07:45:25.854Z,9.07
2022-07-25T07:50:32.473Z,8.00
2022-07-25T07:55:45.913Z,7.60
2022-07-25T08:00:52.103Z,7.43
2022-07-25T08:05:55.244Z,7.65
2022-07-25T08:10:59.141Z,6.68
2022-07-25T08:16:05.073Z,6.60
2022-07-25T08:21:10.313Z,6.35
2022-07-25T08:26:17.109Z,6.20
2022-07-25T08:31:21.028Z,5.78
2022-07-25T08:36:25.219Z,6.13
2022-07-25T08:41:29.719Z,5.78
2022-07-25T08:46:35.363Z,5.35
2022-07-25T08:51:37.673Z,5.80
2022-07-25T08:56:39.569Z,5.75
2022-07-25T09:01:43.439Z,5.07
2022-07-25T09:06:51.890Z,5.55
2022-07-25T09:11:53.714Z,5.53
2022-07-25T09:17:22.649Z,5.78
2022-07-25T09:22:45.937Z,5.32
2022-07-25T09:27:48.240Z,5.00
2022-07-25T09:33:01.688Z,5.35
2022-07-25T09:38:12.926Z,5.55
2022-07-25T09:43:14.870Z,5.00
2022-07-25T09:48:18.763Z,5.32
2022-07-25T09:53:22.965Z,6.22
2022-07-25T09:58:25.434Z,6.68
2022-07-25T10:03:45.505Z,5.60
2022-07-25T10:08:49.379Z,6.82
2022-07-25T10:13:54.302Z,7.07
2022-07-25T10:19:01.380Z,7.75
2022-07-25T10:24:11.010Z,7.68
2022-07-25T10:29:16.060Z,7.72
2022-07-25T10:34:29.650Z,8.70
2022-07-25T10:39:38.715Z,8.55
2022-07-25T10:44:48.313Z,9.07
2022-07-25T10:55:28.839Z,9.15
2022-07-25T11:00:34.176Z,8.80
2022-07-25T11:05:45.604Z,8.63
2022-07-25T11:10:53.506Z,9.52
2022-07-25T11:16:01.215Z,9.60
2022-07-25T11:21:10.311Z,10.02
2022-07-25T11:26:15.653Z,9.05
2022-07-25T11:31:25.200Z,8.02
2022-07-25T11:36:31.007Z,9.27
2022-07-25T11:41:35.769Z,8.20
2022-07-25T11:46:44.681Z,8.40
2022-07-25T11:51:47.306Z,6.40
2022-07-25T11:56:54.298Z,7.20
2022-07-25T12:01:58.559Z,6.80
2022-07-25T12:07:05.680Z,7.68
2022-07-25T12:12:09.337Z,6.78
2022-07-25T12:17:16.495Z,6.10
2022-07-25T12:22:18.282Z,5.35
2022-07-25T12:27:22.470Z,4.40
2022-07-25T12:32:26.459Z,3.60
2022-07-25T12:37:30.624Z,3.65
2022-07-25T12:42:33.912Z,3.33
2022-07-25T12:47:36.226Z,3.40
2022-07-25T12:52:38.459Z,3.42
2022-07-25T12:57:40.250Z,3.90
2022-07-25T13:02:44.353Z,3.90
2022-07-25T13:07:46.290Z,4.20
2022-07-25T13:12:52.727Z,4.68
2022-07-25T13:17:54.911Z,4.47
2022-07-25T13:23:00.656Z,4.40
2022-07-25T13:28:10.889Z,3.53
2022-07-25T13:33:15.296Z,3.75
2022-07-25T13:38:17.860Z,4.00
2022-07-25T13:43:27.609Z,3.05
2022-07-25T13:48:35.092Z,2.42
2022-07-25T13:53:36.889Z,2.33
2022-07-25T13:58:38.821Z,1.85
2022-07-25T14:03:40.688Z,2.03
2022-07-25T14:08:45.036Z,2.15
2022-07-25T14:13:47.850Z,1.58
2022-07-25T14:18:52.105Z,2.30
2022-07-25T14:23:57.779Z,2.50
2022-07-25T14:29:01.933Z,3.15
2022-07-25T14:34:06.295Z,2.85
2022-07-25T14:39:08.639Z,2.55
2022-07-25T14:44:11.047Z,2.83
2022-07-25T14:49:16.713Z,1.98
2022-07-25T14:54:23.453Z,1.73
2022-07-25T14:59:30.823Z,1.83
2022-07-25T15:04:32.660Z,1.30
2022-07-25T15:09:38.460Z,1.55
2022-07-25T15:14:41.744Z,1.50
2022-07-25T15:19:44.513Z,1.80
2022-07-25T15:25:17.182Z,2.10
2022-07-25T15:30:09.501Z,2.08
2022-07-25T15:35:12.294Z,1.98
2022-07-25T15:40:14.290Z,2.25
2022-07-25T15:45:32.628Z,2.25
2022-07-25T15:50:39.716Z,2.30
2022-07-25T15:55:45.494Z,2.10
2022-07-25T16:00:47.986Z,2.55
2022-07-25T16:05:49.960Z,2.30
2022-07-25T16:10:54.497Z,2.65
2022-07-25T16:15:56.528Z,2.70
2022-07-25T16:20:58.571Z,2.60
2022-07-25T16:26:00.473Z,2.53
2022-07-25T16:31:08.443Z,2.60
2022-07-25T16:36:11.397Z,2.58
2022-07-25T16:41:13.385Z,2.58
2022-07-25T16:46:15.812Z,2.40
2022-07-25T16:51:17.683Z,2.42
2022-07-25T16:56:19.579Z,2.50
2022-07-25T17:01:25.036Z,3.05
2022-07-25T17:06:27.179Z,2.42
2022-07-25T17:11:30.167Z,2.55
2022-07-25T17:16:32.589Z,2.70
2022-07-25T17:21:37.047Z,3.17
2022-07-25T17:26:39.010Z,3.00
2022-07-25T17:31:50.358Z,3.10
2022-07-25T17:36:55.832Z,2.55
2022-07-25T17:41:58.938Z,2.17
2022-07-25T17:47:00.894Z,2.80
2022-07-25T17:52:04.025Z,2.47
2022-07-25T17:57:08.585Z,2.97
2022-07-25T18:02:10.513Z,2.78
2022-07-25T18:07:14.795Z,2.67
2022-07-25T18:12:18.801Z,2.17
2022-07-25T18:17:28.990Z,2.20
2022-07-25T18:22:31.179Z,2.20
2022-07-25T18:27:39.653Z,3.28
2022-07-25T18:32:47.661Z,2.95
2022-07-25T18:37:49.804Z,2.40
2022-07-25T18:42:51.643Z,2.65
2022-07-25T18:47:54.602Z,3.15
2022-07-25T18:52:57.345Z,2.40
2022-07-25T18:57:59.431Z,2.80
2022-07-25T19:03:01.726Z,2.40
2022-07-25T19:08:08.657Z,2.55
2022-07-25T19:13:32.736Z,2.10
2022-07-25T19:18:36.026Z,2.20
2022-07-25T19:23:40.367Z,2.15
2022-07-25T19:28:42.940Z,2.38
2022-07-25T19:33:48.119Z,2.17
2022-07-25T19:38:54.777Z,1.80
2022-07-25T19:44:06.043Z,1.90
2022-07-25T19:49:11.524Z,2.10
2022-07-25T19:54:15.893Z,1.83
2022-07-25T19:59:21.805Z,1.95
2022-07-25T20:04:23.794Z,2.00
2022-07-25T20:09:29.260Z,2.20
2022-07-25T20:14:33.822Z,2.15
2022-07-25T20:19:36.896Z,2.10
2022-07-25T20:24:38.760Z,1.80
2022-07-25T20:29:41.050Z,2.20
2022-07-25T20:34:45.371Z,2.45
2022-07-25T20:39:48.221Z,2.33
2022-07-25T20:44:56.774Z,2.38
2022-07-25T20:50:02.806Z,2.35
2022-07-25T20:55:09.123Z,2.72
2022-07-25T21:00:14.292Z,2.50
2022-07-25T21:05:19.855Z,2.35
2022-07-25T21:10:24.941Z,2.40
2022-07-25T21:15:30.841Z,2.50
2022-07-25T21:20:32.713Z,2.25
2022-07-25T21:25:34.515Z,2.63
2022-07-25T21:30:37.445Z,2.70
2022-07-25T21:35:49.183Z,3.45
2022-07-25T21:40:56.765Z,3.42
2022-07-25T21:46:02.763Z,2.78
2022-07-25T21:51:18.803Z,2.83
2022-07-25T21:56:27.363Z,2.80
2022-07-25T22:01:29.358Z,3.15
2022-07-25T22:06:31.506Z,3.58
2022-07-25T22:11:42.924Z,2.78
2022-07-25T22:16:48.251Z,2.83
2022-07-25T22:21:53.163Z,3.20
2022-07-25T22:26:57.100Z,3.78
2022-07-25T22:31:59.480Z,3.30
2022-07-25T22:37:05.391Z,3.33
2022-07-25T22:42:09.446Z,3.90
2022-07-25T22:47:14.529Z,3.08
2022-07-25T22:52:20.727Z,3.08
2022-07-25T22:57:22.525Z,3.40
2022-07-25T23:02:24.330Z,4.00
2022-07-25T23:07:26.093Z,3.40
2022-07-25T23:12:28.058Z,3.80
2022-07-25T23:17:34.661Z,3.83
2022-07-25T23:22:36.470Z,3.65
2022-07-25T23:27:42.983Z,3.60
2022-07-25T23:32:47.182Z,3.70
2022-07-25T23:37:49.014Z,3.13
2022-07-25T23:42:54.537Z,4.22
2022-07-25T23:48:00.091Z,4.00
2022-07-25T23:53:05.722Z,3.85
2022-07-25T23:58:10.047Z,3.58
